sensor_id;sensor_type;location;lat;lon;timestamp;temperature;humidity
22734;DHT22;11534;51.994;5.692;2023-05-31T00:01:17;13.60;99.90
22734;DHT22;11534;51.994;5.692;2023-05-31T00:03:43;13.50;99.90
22734;DHT22;11534;51.994;5.692;2023-05-31T00:06:10;13.50;99.90
22734;DHT22;11534;51.994;5.692;2023-05-31T00:08:36;13.50;99.90
22734;DHT22;11534;51.994;5.692;2023-05-31T00:11:03;13.40;99.90
22734;DHT22;11534;51.994;5.692;2023-05-31T00:13:29;13.40;99.90
22734;DHT22;11534;51.994;5.692;2023-05-31T00:15:55;13.40;99.90
22734;DHT22;11534;51.994;5.692;2023-05-31T00:18:21;13.40;99.90
22734;DHT22;11534;51.994;5.692;2023-05-31T00:20:47;13.30;99.90
22734;DHT22;11534;51.994;5.692;2023-05-31T00:23:12;13.30;99.90
22734;DHT22;11534;51.994;5.692;2023-05-31T00:25:38;13.40;99.90
22734;DHT22;11534;51.994;5.692;2023-05-31T00:28:04;13.30;99.90
22734;DHT22;11534;51.994;5.692;2023-05-31T00:30:29;13.30;99.90
22734;DHT22;11534;51.994;5.692;2023-05-31T00:32:55;13.30;99.90
22734;DHT22;11534;51.994;5.692;2023-05-31T00:35:21;13.20;99.90
22734;DHT22;11534;51.994;5.692;2023-05-31T00:37:46;13.20;99.90
22734;DHT22;11534;51.994;5.692;2023-05-31T00:40:14;13.20;99.90
22734;DHT22;11534;51.994;5.692;2023-05-31T00:42:39;13.20;99.90
22734;DHT22;11534;51.994;5.692;2023-05-31T00:45:06;13.20;99.90
22734;DHT22;11534;51.994;5.692;2023-05-31T00:47:32;13.10;99.90
22734;DHT22;11534;51.994;5.692;2023-05-31T00:49:58;13.10;99.90
22734;DHT22;11534;51.994;5.692;2023-05-31T00:52:26;13.10;99.90
22734;DHT22;11534;51.994;5.692;2023-05-31T00:54:53;13.10;99.90
22734;DHT22;11534;51.994;5.692;2023-05-31T00:57:19;13.00;99.90
22734;DHT22;11534;51.994;5.692;2023-05-31T00:59:46;13.00;99.90
22734;DHT22;11534;51.994;5.692;2023-05-31T01:02:12;13.00;99.90
22734;DHT22;11534;51.994;5.692;2023-05-31T01:04:41;13.00;99.90
22734;DHT22;11534;51.994;5.692;2023-05-31T01:07:07;13.00;99.90
22734;DHT22;11534;51.994;5.692;2023-05-31T01:09:33;13.00;99.90
22734;DHT22;11534;51.994;5.692;2023-05-31T01:15:06;12.90;99.90
22734;DHT22;11534;51.994;5.692;2023-05-31T01:18:06;12.80;99.90
22734;DHT22;11534;51.994;5.692;2023-05-31T01:20:38;12.80;99.90
22734;DHT22;11534;51.994;5.692;2023-05-31T01:28:34;12.80;99.90
22734;DHT22;11534;51.994;5.692;2023-05-31T01:31:09;12.80;99.90
22734;DHT22;11534;51.994;5.692;2023-05-31T01:33:37;12.80;99.90
22734;DHT22;11534;51.994;5.692;2023-05-31T01:36:04;12.80;99.90
22734;DHT22;11534;51.994;5.692;2023-05-31T01:38:30;12.80;99.90
22734;DHT22;11534;51.994;5.692;2023-05-31T01:40:57;12.80;99.90
22734;DHT22;11534;51.994;5.692;2023-05-31T01:43:25;12.60;99.90
22734;DHT22;11534;51.994;5.692;2023-05-31T01:45:52;12.60;99.90
22734;DHT22;11534;51.994;5.692;2023-05-31T01:48:19;12.60;99.90
22734;DHT22;11534;51.994;5.692;2023-05-31T01:50:45;12.60;99.90
22734;DHT22;11534;51.994;5.692;2023-05-31T01:53:11;12.60;99.90
22734;DHT22;11534;51.994;5.692;2023-05-31T01:55:37;12.60;99.90
22734;DHT22;11534;51.994;5.692;2023-05-31T01:58:04;12.60;99.90
22734;DHT22;11534;51.994;5.692;2023-05-31T02:00:31;12.60;99.90
22734;DHT22;11534;51.994;5.692;2023-05-31T02:02:57;12.50;99.90
22734;DHT22;11534;51.994;5.692;2023-05-31T02:05:23;12.40;99.90
22734;DHT22;11534;51.994;5.692;2023-05-31T02:07:49;12.40;99.90
22734;DHT22;11534;51.994;5.692;2023-05-31T02:10:15;12.40;99.90
22734;DHT22;11534;51.994;5.692;2023-05-31T02:12:41;12.40;99.90
22734;DHT22;11534;51.994;5.692;2023-05-31T02:15:10;12.40;99.90
22734;DHT22;11534;51.994;5.692;2023-05-31T02:17:39;12.40;99.90
22734;DHT22;11534;51.994;5.692;2023-05-31T02:20:10;12.40;99.90
22734;DHT22;11534;51.994;5.692;2023-05-31T02:22:41;12.40;99.90
22734;DHT22;11534;51.994;5.692;2023-05-31T02:25:11;12.40;99.90
22734;DHT22;11534;51.994;5.692;2023-05-31T02:27:37;12.30;99.90
22734;DHT22;11534;51.994;5.692;2023-05-31T02:30:04;12.30;99.90
22734;DHT22;11534;51.994;5.692;2023-05-31T02:32:34;12.40;99.90
22734;DHT22;11534;51.994;5.692;2023-05-31T02:35:06;12.30;99.90
22734;DHT22;11534;51.994;5.692;2023-05-31T02:37:32;12.20;99.90
22734;DHT22;11534;51.994;5.692;2023-05-31T02:39:58;12.20;99.90
22734;DHT22;11534;51.994;5.692;2023-05-31T02:42:24;12.20;99.90
22734;DHT22;11534;51.994;5.692;2023-05-31T02:44:49;12.20;99.90
22734;DHT22;11534;51.994;5.692;2023-05-31T02:47:16;12.10;99.90
22734;DHT22;11534;51.994;5.692;2023-05-31T02:49:42;12.20;99.90
22734;DHT22;11534;51.994;5.692;2023-05-31T02:52:08;12.10;99.90
22734;DHT22;11534;51.994;5.692;2023-05-31T02:54:33;12.00;99.90
22734;DHT22;11534;51.994;5.692;2023-05-31T02:56:59;12.10;99.90
22734;DHT22;11534;51.994;5.692;2023-05-31T02:59:25;12.10;99.90
22734;DHT22;11534;51.994;5.692;2023-05-31T03:01:51;12.10;99.90
22734;DHT22;11534;51.994;5.692;2023-05-31T03:04:17;12.00;99.90
22734;DHT22;11534;51.994;5.692;2023-05-31T03:06:43;11.90;99.90
22734;DHT22;11534;51.994;5.692;2023-05-31T03:09:10;12.00;99.90
22734;DHT22;11534;51.994;5.692;2023-05-31T03:11:40;12.00;99.90
22734;DHT22;11534;51.994;5.692;2023-05-31T03:14:05;12.00;99.90
22734;DHT22;11534;51.994;5.692;2023-05-31T03:16:31;12.00;99.90
22734;DHT22;11534;51.994;5.692;2023-05-31T03:18:56;11.90;99.90
22734;DHT22;11534;51.994;5.692;2023-05-31T03:21:22;11.90;99.90
22734;DHT22;11534;51.994;5.692;2023-05-31T03:23:48;11.90;99.90
22734;DHT22;11534;51.994;5.692;2023-05-31T03:26:16;11.90;99.90
22734;DHT22;11534;51.994;5.692;2023-05-31T03:28:42;11.90;99.90
22734;DHT22;11534;51.994;5.692;2023-05-31T03:31:08;11.90;99.90
22734;DHT22;11534;51.994;5.692;2023-05-31T03:33:33;11.90;99.90
22734;DHT22;11534;51.994;5.692;2023-05-31T03:36:01;11.90;99.90
22734;DHT22;11534;51.994;5.692;2023-05-31T03:38:28;11.90;99.90
22734;DHT22;11534;51.994;5.692;2023-05-31T03:40:55;11.80;99.90
22734;DHT22;11534;51.994;5.692;2023-05-31T03:43:20;11.80;99.90
22734;DHT22;11534;51.994;5.692;2023-05-31T03:45:46;11.80;99.90
22734;DHT22;11534;51.994;5.692;2023-05-31T03:48:12;11.80;99.90
22734;DHT22;11534;51.994;5.692;2023-05-31T03:50:39;11.70;99.90
22734;DHT22;11534;51.994;5.692;2023-05-31T03:53:05;11.70;99.90
22734;DHT22;11534;51.994;5.692;2023-05-31T03:55:31;11.70;99.90
22734;DHT22;11534;51.994;5.692;2023-05-31T03:57:58;11.70;99.90
22734;DHT22;11534;51.994;5.692;2023-05-31T04:00:24;11.70;99.90
22734;DHT22;11534;51.994;5.692;2023-05-31T04:02:50;11.70;99.90
22734;DHT22;11534;51.994;5.692;2023-05-31T04:05:15;11.70;99.90
22734;DHT22;11534;51.994;5.692;2023-05-31T04:07:41;11.70;99.90
22734;DHT22;11534;51.994;5.692;2023-05-31T04:10:08;11.70;99.90
22734;DHT22;11534;51.994;5.692;2023-05-31T04:12:33;11.60;99.90
22734;DHT22;11534;51.994;5.692;2023-05-31T04:14:59;11.60;99.90
22734;DHT22;11534;51.994;5.692;2023-05-31T04:17:25;11.70;99.90
22734;DHT22;11534;51.994;5.692;2023-05-31T04:19:50;11.70;99.90
22734;DHT22;11534;51.994;5.692;2023-05-31T04:22:16;11.70;99.90
22734;DHT22;11534;51.994;5.692;2023-05-31T04:24:42;11.70;99.90
22734;DHT22;11534;51.994;5.692;2023-05-31T04:27:07;11.70;99.90
22734;DHT22;11534;51.994;5.692;2023-05-31T04:29:33;11.70;99.90
22734;DHT22;11534;51.994;5.692;2023-05-31T04:31:59;11.70;99.90
22734;DHT22;11534;51.994;5.692;2023-05-31T04:34:25;11.70;99.90
22734;DHT22;11534;51.994;5.692;2023-05-31T04:36:52;11.70;99.90
22734;DHT22;11534;51.994;5.692;2023-05-31T04:39:19;11.70;99.90
22734;DHT22;11534;51.994;5.692;2023-05-31T04:41:48;11.80;99.90
22734;DHT22;11534;51.994;5.692;2023-05-31T04:44:14;11.80;99.90
22734;DHT22;11534;51.994;5.692;2023-05-31T04:46:40;11.80;99.90
22734;DHT22;11534;51.994;5.692;2023-05-31T04:49:06;11.80;99.90
22734;DHT22;11534;51.994;5.692;2023-05-31T04:51:32;11.80;99.90
22734;DHT22;11534;51.994;5.692;2023-05-31T04:54:01;11.80;99.90
22734;DHT22;11534;51.994;5.692;2023-05-31T04:56:27;11.70;99.90
22734;DHT22;11534;51.994;5.692;2023-05-31T04:58:53;11.80;99.90
22734;DHT22;11534;51.994;5.692;2023-05-31T05:01:19;11.70;99.90
22734;DHT22;11534;51.994;5.692;2023-05-31T05:03:44;11.80;99.90
22734;DHT22;11534;51.994;5.692;2023-05-31T05:06:14;11.80;99.90
22734;DHT22;11534;51.994;5.692;2023-05-31T05:08:42;11.80;99.90
22734;DHT22;11534;51.994;5.692;2023-05-31T05:11:07;11.80;99.90
22734;DHT22;11534;51.994;5.692;2023-05-31T05:13:33;11.80;99.90
22734;DHT22;11534;51.994;5.692;2023-05-31T05:16:03;11.80;99.90
22734;DHT22;11534;51.994;5.692;2023-05-31T05:18:29;11.90;99.90
22734;DHT22;11534;51.994;5.692;2023-05-31T05:20:55;11.90;99.90
22734;DHT22;11534;51.994;5.692;2023-05-31T05:23:22;11.90;99.90
22734;DHT22;11534;51.994;5.692;2023-05-31T05:25:48;11.90;99.90
22734;DHT22;11534;51.994;5.692;2023-05-31T05:28:13;12.00;99.90
22734;DHT22;11534;51.994;5.692;2023-05-31T05:30:39;12.00;99.90
22734;DHT22;11534;51.994;5.692;2023-05-31T05:33:05;12.10;99.90
22734;DHT22;11534;51.994;5.692;2023-05-31T05:35:31;12.10;99.90
22734;DHT22;11534;51.994;5.692;2023-05-31T05:37:57;12.20;99.90
22734;DHT22;11534;51.994;5.692;2023-05-31T05:40:24;12.20;99.90
22734;DHT22;11534;51.994;5.692;2023-05-31T05:42:50;12.30;99.90
22734;DHT22;11534;51.994;5.692;2023-05-31T05:45:16;12.30;99.90
22734;DHT22;11534;51.994;5.692;2023-05-31T05:47:42;12.40;99.90
22734;DHT22;11534;51.994;5.692;2023-05-31T05:50:11;12.40;99.90
22734;DHT22;11534;51.994;5.692;2023-05-31T05:52:38;12.40;99.90
22734;DHT22;11534;51.994;5.692;2023-05-31T05:55:05;12.40;99.90
22734;DHT22;11534;51.994;5.692;2023-05-31T05:57:32;12.50;99.90
22734;DHT22;11534;51.994;5.692;2023-05-31T05:59:57;12.60;99.90
22734;DHT22;11534;51.994;5.692;2023-05-31T06:02:23;12.60;99.90
22734;DHT22;11534;51.994;5.692;2023-05-31T06:04:49;12.70;99.90
22734;DHT22;11534;51.994;5.692;2023-05-31T06:07:16;12.70;99.90
22734;DHT22;11534;51.994;5.692;2023-05-31T06:09:43;12.80;99.90
22734;DHT22;11534;51.994;5.692;2023-05-31T06:12:09;12.80;99.90
22734;DHT22;11534;51.994;5.692;2023-05-31T06:14:34;12.90;99.90
22734;DHT22;11534;51.994;5.692;2023-05-31T06:17:01;13.00;99.90
22734;DHT22;11534;51.994;5.692;2023-05-31T06:19:27;13.10;99.90
22734;DHT22;11534;51.994;5.692;2023-05-31T06:21:53;13.10;99.90
22734;DHT22;11534;51.994;5.692;2023-05-31T06:24:21;13.10;99.90
22734;DHT22;11534;51.994;5.692;2023-05-31T06:26:47;13.20;99.90
22734;DHT22;11534;51.994;5.692;2023-05-31T06:29:13;13.30;99.90
22734;DHT22;11534;51.994;5.692;2023-05-31T06:31:38;13.40;99.90
22734;DHT22;11534;51.994;5.692;2023-05-31T06:34:04;13.50;99.90
22734;DHT22;11534;51.994;5.692;2023-05-31T06:36:31;13.60;99.90
22734;DHT22;11534;51.994;5.692;2023-05-31T06:38:57;13.70;99.90
22734;DHT22;11534;51.994;5.692;2023-05-31T06:41:23;13.90;99.90
22734;DHT22;11534;51.994;5.692;2023-05-31T06:43:49;13.90;99.90
22734;DHT22;11534;51.994;5.692;2023-05-31T06:46:14;14.10;99.90
22734;DHT22;11534;51.994;5.692;2023-05-31T06:48:40;14.10;99.90
22734;DHT22;11534;51.994;5.692;2023-05-31T06:51:06;14.20;99.90
22734;DHT22;11534;51.994;5.692;2023-05-31T06:53:32;14.30;99.90
22734;DHT22;11534;51.994;5.692;2023-05-31T06:55:57;14.30;99.90
22734;DHT22;11534;51.994;5.692;2023-05-31T06:58:23;14.50;99.90
22734;DHT22;11534;51.994;5.692;2023-05-31T07:00:49;14.60;99.90
22734;DHT22;11534;51.994;5.692;2023-05-31T07:03:15;14.60;99.90
22734;DHT22;11534;51.994;5.692;2023-05-31T07:05:40;14.70;99.90
22734;DHT22;11534;51.994;5.692;2023-05-31T07:08:09;14.70;99.90
22734;DHT22;11534;51.994;5.692;2023-05-31T07:10:35;14.80;99.90
22734;DHT22;11534;51.994;5.692;2023-05-31T07:13:01;14.90;99.90
22734;DHT22;11534;51.994;5.692;2023-05-31T07:15:27;14.90;99.90
22734;DHT22;11534;51.994;5.692;2023-05-31T07:17:53;15.00;99.90
22734;DHT22;11534;51.994;5.692;2023-05-31T07:20:19;15.10;99.90
22734;DHT22;11534;51.994;5.692;2023-05-31T07:22:44;15.20;99.90
22734;DHT22;11534;51.994;5.692;2023-05-31T07:25:10;15.30;99.90
22734;DHT22;11534;51.994;5.692;2023-05-31T07:27:36;15.40;99.90
22734;DHT22;11534;51.994;5.692;2023-05-31T07:30:04;15.60;99.90
22734;DHT22;11534;51.994;5.692;2023-05-31T07:32:30;15.70;99.90
22734;DHT22;11534;51.994;5.692;2023-05-31T07:34:56;15.90;99.90
22734;DHT22;11534;51.994;5.692;2023-05-31T07:37:21;16.10;99.90
22734;DHT22;11534;51.994;5.692;2023-05-31T07:39:47;16.20;99.90
22734;DHT22;11534;51.994;5.692;2023-05-31T07:42:13;16.40;99.90
22734;DHT22;11534;51.994;5.692;2023-05-31T07:44:39;16.70;99.90
22734;DHT22;11534;51.994;5.692;2023-05-31T07:47:05;16.90;99.90
22734;DHT22;11534;51.994;5.692;2023-05-31T07:49:31;17.00;99.90
22734;DHT22;11534;51.994;5.692;2023-05-31T07:51:57;17.20;99.90
22734;DHT22;11534;51.994;5.692;2023-05-31T07:54:23;17.30;99.90
22734;DHT22;11534;51.994;5.692;2023-05-31T07:56:48;17.50;99.90
22734;DHT22;11534;51.994;5.692;2023-05-31T07:59:14;17.60;99.90
22734;DHT22;11534;51.994;5.692;2023-05-31T08:01:42;17.70;99.90
22734;DHT22;11534;51.994;5.692;2023-05-31T08:04:11;17.90;99.90
22734;DHT22;11534;51.994;5.692;2023-05-31T08:06:37;18.00;99.90
22734;DHT22;11534;51.994;5.692;2023-05-31T08:09:04;18.00;99.90
22734;DHT22;11534;51.994;5.692;2023-05-31T08:11:34;18.00;99.90
22734;DHT22;11534;51.994;5.692;2023-05-31T08:14:07;18.00;99.90
22734;DHT22;11534;51.994;5.692;2023-05-31T08:21:41;17.90;99.90
22734;DHT22;11534;51.994;5.692;2023-05-31T08:24:07;18.00;99.90
22734;DHT22;11534;51.994;5.692;2023-05-31T08:26:33;18.00;99.90
22734;DHT22;11534;51.994;5.692;2023-05-31T08:28:59;18.00;99.90
22734;DHT22;11534;51.994;5.692;2023-05-31T08:31:25;18.00;99.90
22734;DHT22;11534;51.994;5.692;2023-05-31T08:33:58;18.10;99.90
22734;DHT22;11534;51.994;5.692;2023-05-31T08:36:25;18.10;99.90
22734;DHT22;11534;51.994;5.692;2023-05-31T08:38:51;18.10;99.90
22734;DHT22;11534;51.994;5.692;2023-05-31T08:41:18;18.10;99.90
22734;DHT22;11534;51.994;5.692;2023-05-31T08:43:45;18.10;99.90
22734;DHT22;11534;51.994;5.692;2023-05-31T08:46:14;18.20;99.90
22734;DHT22;11534;51.994;5.692;2023-05-31T08:48:53;18.20;99.90
22734;DHT22;11534;51.994;5.692;2023-05-31T08:51:23;18.20;99.90
22734;DHT22;11534;51.994;5.692;2023-05-31T08:53:50;18.40;99.90
22734;DHT22;11534;51.994;5.692;2023-05-31T08:56:18;18.40;99.90
22734;DHT22;11534;51.994;5.692;2023-05-31T08:58:49;18.40;99.90
22734;DHT22;11534;51.994;5.692;2023-05-31T09:01:17;18.40;99.90
22734;DHT22;11534;51.994;5.692;2023-05-31T09:03:43;18.60;99.90
22734;DHT22;11534;51.994;5.692;2023-05-31T09:06:09;18.60;99.90
22734;DHT22;11534;51.994;5.692;2023-05-31T09:08:36;18.70;99.90
22734;DHT22;11534;51.994;5.692;2023-05-31T09:11:02;18.70;99.90
22734;DHT22;11534;51.994;5.692;2023-05-31T09:13:28;18.70;99.90
22734;DHT22;11534;51.994;5.692;2023-05-31T09:15:54;18.80;99.90
22734;DHT22;11534;51.994;5.692;2023-05-31T09:18:20;18.80;99.90
22734;DHT22;11534;51.994;5.692;2023-05-31T09:20:47;18.80;99.90
22734;DHT22;11534;51.994;5.692;2023-05-31T09:23:14;18.90;99.90
22734;DHT22;11534;51.994;5.692;2023-05-31T09:25:49;18.90;99.90
22734;DHT22;11534;51.994;5.692;2023-05-31T09:28:17;19.10;99.90
22734;DHT22;11534;51.994;5.692;2023-05-31T09:30:44;19.20;99.90
22734;DHT22;11534;51.994;5.692;2023-05-31T09:33:10;19.20;99.90
22734;DHT22;11534;51.994;5.692;2023-05-31T09:35:36;19.40;99.90
22734;DHT22;11534;51.994;5.692;2023-05-31T09:38:06;19.40;99.90
22734;DHT22;11534;51.994;5.692;2023-05-31T09:40:33;19.50;99.90
22734;DHT22;11534;51.994;5.692;2023-05-31T09:42:59;19.60;99.90
22734;DHT22;11534;51.994;5.692;2023-05-31T09:45:26;19.80;99.90
22734;DHT22;11534;51.994;5.692;2023-05-31T09:47:54;19.80;99.90
22734;DHT22;11534;51.994;5.692;2023-05-31T09:50:21;20.00;99.90
22734;DHT22;11534;51.994;5.692;2023-05-31T09:52:49;20.20;99.90
22734;DHT22;11534;51.994;5.692;2023-05-31T09:55:19;20.30;99.90
22734;DHT22;11534;51.994;5.692;2023-05-31T09:57:45;20.60;99.90
22734;DHT22;11534;51.994;5.692;2023-05-31T10:00:13;20.80;99.90
22734;DHT22;11534;51.994;5.692;2023-05-31T10:02:52;21.00;99.90
22734;DHT22;11534;51.994;5.692;2023-05-31T10:05:18;21.10;99.90
22734;DHT22;11534;51.994;5.692;2023-05-31T10:07:48;21.30;99.90
22734;DHT22;11534;51.994;5.692;2023-05-31T10:10:14;21.60;99.90
22734;DHT22;11534;51.994;5.692;2023-05-31T10:15:24;21.90;99.90
22734;DHT22;11534;51.994;5.692;2023-05-31T10:18:02;22.10;99.90
22734;DHT22;11534;51.994;5.692;2023-05-31T10:20:39;22.50;99.90
22734;DHT22;11534;51.994;5.692;2023-05-31T10:23:14;22.80;99.90
22734;DHT22;11534;51.994;5.692;2023-05-31T10:33:28;24.10;99.90
22734;DHT22;11534;51.994;5.692;2023-05-31T10:35:57;24.20;99.90
22734;DHT22;11534;51.994;5.692;2023-05-31T10:38:38;24.30;99.90
22734;DHT22;11534;51.994;5.692;2023-05-31T10:41:10;24.30;99.90
22734;DHT22;11534;51.994;5.692;2023-05-31T10:43:46;24.30;99.90
22734;DHT22;11534;51.994;5.692;2023-05-31T10:46:19;24.50;99.90
22734;DHT22;11534;51.994;5.692;2023-05-31T10:51:18;24.90;99.90
22734;DHT22;11534;51.994;5.692;2023-05-31T10:53:46;25.00;99.90
22734;DHT22;11534;51.994;5.692;2023-05-31T10:56:15;25.20;99.90
22734;DHT22;11534;51.994;5.692;2023-05-31T10:58:48;25.60;99.90
22734;DHT22;11534;51.994;5.692;2023-05-31T11:01:17;25.60;99.90
22734;DHT22;11534;51.994;5.692;2023-05-31T11:03:53;25.70;99.90
22734;DHT22;11534;51.994;5.692;2023-05-31T11:06:29;25.80;99.90
22734;DHT22;11534;51.994;5.692;2023-05-31T11:09:12;25.70;99.90
22734;DHT22;11534;51.994;5.692;2023-05-31T11:14:29;26.10;99.90
22734;DHT22;11534;51.994;5.692;2023-05-31T11:19:34;26.00;99.90
22734;DHT22;11534;51.994;5.692;2023-05-31T11:22:08;26.30;99.90
22734;DHT22;11534;51.994;5.692;2023-05-31T11:27:04;26.50;99.90
22734;DHT22;11534;51.994;5.692;2023-05-31T11:32:13;27.00;99.90
22734;DHT22;11534;51.994;5.692;2023-05-31T11:35:07;27.20;99.90
22734;DHT22;11534;51.994;5.692;2023-05-31T12:08:48;28.00;99.90
22734;DHT22;11534;51.994;5.692;2023-05-31T12:11:16;28.10;99.90
22734;DHT22;11534;51.994;5.692;2023-05-31T12:13:42;28.10;99.90
22734;DHT22;11534;51.994;5.692;2023-05-31T12:16:08;28.40;99.90
22734;DHT22;11534;51.994;5.692;2023-05-31T12:18:33;28.50;99.90
22734;DHT22;11534;51.994;5.692;2023-05-31T12:21:07;28.60;99.90
22734;DHT22;11534;51.994;5.692;2023-05-31T12:23:51;28.60;99.90
22734;DHT22;11534;51.994;5.692;2023-05-31T12:26:17;28.30;99.90
22734;DHT22;11534;51.994;5.692;2023-05-31T12:28:45;28.60;99.90
22734;DHT22;11534;51.994;5.692;2023-05-31T12:31:10;28.30;99.90
22734;DHT22;11534;51.994;5.692;2023-05-31T12:33:44;28.20;99.90
22734;DHT22;11534;51.994;5.692;2023-05-31T12:36:11;28.80;99.90
22734;DHT22;11534;51.994;5.692;2023-05-31T12:38:37;29.10;99.90
22734;DHT22;11534;51.994;5.692;2023-05-31T12:41:04;29.00;99.90
22734;DHT22;11534;51.994;5.692;2023-05-31T12:43:31;28.70;99.90
22734;DHT22;11534;51.994;5.692;2023-05-31T12:45:57;28.60;99.90
22734;DHT22;11534;51.994;5.692;2023-05-31T12:48:22;28.60;99.90
22734;DHT22;11534;51.994;5.692;2023-05-31T12:50:49;29.10;99.90
22734;DHT22;11534;51.994;5.692;2023-05-31T12:53:15;29.40;99.90
22734;DHT22;11534;51.994;5.692;2023-05-31T12:55:42;29.40;99.90
22734;DHT22;11534;51.994;5.692;2023-05-31T12:58:08;29.60;99.90
22734;DHT22;11534;51.994;5.692;2023-05-31T13:00:33;29.00;99.90
22734;DHT22;11534;51.994;5.692;2023-05-31T13:02:59;28.60;99.90
22734;DHT22;11534;51.994;5.692;2023-05-31T13:05:25;28.90;99.90
22734;DHT22;11534;51.994;5.692;2023-05-31T13:07:52;28.20;99.90
22734;DHT22;11534;51.994;5.692;2023-05-31T13:10:18;28.60;99.90
22734;DHT22;11534;51.994;5.692;2023-05-31T13:12:44;28.90;99.90
22734;DHT22;11534;51.994;5.692;2023-05-31T13:15:10;29.10;99.90
22734;DHT22;11534;51.994;5.692;2023-05-31T13:17:36;28.70;99.90
22734;DHT22;11534;51.994;5.692;2023-05-31T13:20:02;28.70;99.90
22734;DHT22;11534;51.994;5.692;2023-05-31T13:22:28;28.90;99.90
22734;DHT22;11534;51.994;5.692;2023-05-31T13:24:54;28.70;99.90
22734;DHT22;11534;51.994;5.692;2023-05-31T13:27:20;29.00;99.90
22734;DHT22;11534;51.994;5.692;2023-05-31T13:29:45;29.30;99.90
22734;DHT22;11534;51.994;5.692;2023-05-31T13:32:11;29.70;99.90
22734;DHT22;11534;51.994;5.692;2023-05-31T13:34:37;29.60;99.90
22734;DHT22;11534;51.994;5.692;2023-05-31T13:37:02;29.70;99.90
22734;DHT22;11534;51.994;5.692;2023-05-31T13:39:31;29.00;99.90
22734;DHT22;11534;51.994;5.692;2023-05-31T13:41:59;29.30;99.80
22734;DHT22;11534;51.994;5.692;2023-05-31T13:44:26;29.50;99.90
22734;DHT22;11534;51.994;5.692;2023-05-31T13:46:52;29.90;99.90
22734;DHT22;11534;51.994;5.692;2023-05-31T13:49:18;30.20;99.90
22734;DHT22;11534;51.994;5.692;2023-05-31T13:51:45;29.60;99.90
22734;DHT22;11534;51.994;5.692;2023-05-31T13:54:11;29.80;99.90
22734;DHT22;11534;51.994;5.692;2023-05-31T13:56:38;28.80;99.90
22734;DHT22;11534;51.994;5.692;2023-05-31T13:59:04;29.10;99.90
22734;DHT22;11534;51.994;5.692;2023-05-31T14:01:29;29.60;99.90
22734;DHT22;11534;51.994;5.692;2023-05-31T14:03:55;29.80;99.80
22734;DHT22;11534;51.994;5.692;2023-05-31T14:06:21;30.00;99.90
22734;DHT22;11534;51.994;5.692;2023-05-31T14:08:47;29.80;99.70
22734;DHT22;11534;51.994;5.692;2023-05-31T14:11:13;29.40;99.20
22734;DHT22;11534;51.994;5.692;2023-05-31T14:13:39;29.50;99.00
22734;DHT22;11534;51.994;5.692;2023-05-31T14:16:05;29.70;99.60
22734;DHT22;11534;51.994;5.692;2023-05-31T14:18:31;29.60;98.30
22734;DHT22;11534;51.994;5.692;2023-05-31T14:20:58;29.30;99.40
22734;DHT22;11534;51.994;5.692;2023-05-31T14:23:23;28.80;98.90
22734;DHT22;11534;51.994;5.692;2023-05-31T14:25:49;28.70;99.40
22734;DHT22;11534;51.994;5.692;2023-05-31T14:28:16;28.50;99.90
22734;DHT22;11534;51.994;5.692;2023-05-31T14:35:52;29.20;99.40
22734;DHT22;11534;51.994;5.692;2023-05-31T14:38:17;29.20;99.90
22734;DHT22;11534;51.994;5.692;2023-05-31T14:40:44;29.10;98.80
22734;DHT22;11534;51.994;5.692;2023-05-31T14:43:10;29.10;99.70
22734;DHT22;11534;51.994;5.692;2023-05-31T14:45:36;29.40;99.50
22734;DHT22;11534;51.994;5.692;2023-05-31T14:48:01;29.50;98.40
22734;DHT22;11534;51.994;5.692;2023-05-31T14:50:27;29.30;99.50
22734;DHT22;11534;51.994;5.692;2023-05-31T14:52:53;28.80;99.10
22734;DHT22;11534;51.994;5.692;2023-05-31T14:55:18;28.80;99.90
22734;DHT22;11534;51.994;5.692;2023-05-31T14:57:44;28.70;99.90
22734;DHT22;11534;51.994;5.692;2023-05-31T15:00:10;28.60;99.10
22734;DHT22;11534;51.994;5.692;2023-05-31T15:02:37;28.70;99.00
22734;DHT22;11534;51.994;5.692;2023-05-31T15:05:03;28.20;98.60
22734;DHT22;11534;51.994;5.692;2023-05-31T15:07:29;28.20;99.70
22734;DHT22;11534;51.994;5.692;2023-05-31T15:09:54;28.00;99.80
22734;DHT22;11534;51.994;5.692;2023-05-31T15:12:21;28.10;99.90
22734;DHT22;11534;51.994;5.692;2023-05-31T15:14:47;27.90;99.90
22734;DHT22;11534;51.994;5.692;2023-05-31T15:17:14;27.80;99.90
22734;DHT22;11534;51.994;5.692;2023-05-31T15:19:40;27.70;99.90
22734;DHT22;11534;51.994;5.692;2023-05-31T15:22:05;27.30;99.90
22734;DHT22;11534;51.994;5.692;2023-05-31T15:24:32;26.80;99.90
22734;DHT22;11534;51.994;5.692;2023-05-31T15:26:57;26.60;99.90
22734;DHT22;11534;51.994;5.692;2023-05-31T15:29:23;26.70;99.90
22734;DHT22;11534;51.994;5.692;2023-05-31T15:31:50;26.60;99.90
22734;DHT22;11534;51.994;5.692;2023-05-31T15:34:17;26.70;99.90
22734;DHT22;11534;51.994;5.692;2023-05-31T15:36:42;26.80;99.90
22734;DHT22;11534;51.994;5.692;2023-05-31T15:39:08;26.70;99.90
22734;DHT22;11534;51.994;5.692;2023-05-31T15:41:34;26.60;99.90
22734;DHT22;11534;51.994;5.692;2023-05-31T15:44:00;26.70;99.90
22734;DHT22;11534;51.994;5.692;2023-05-31T15:46:27;26.70;99.90
22734;DHT22;11534;51.994;5.692;2023-05-31T15:48:53;26.40;99.90
22734;DHT22;11534;51.994;5.692;2023-05-31T15:51:19;26.20;99.90
22734;DHT22;11534;51.994;5.692;2023-05-31T15:53:44;26.30;99.90
22734;DHT22;11534;51.994;5.692;2023-05-31T15:56:10;26.40;99.90
22734;DHT22;11534;51.994;5.692;2023-05-31T15:58:36;26.40;99.90
22734;DHT22;11534;51.994;5.692;2023-05-31T16:01:01;26.00;99.90
22734;DHT22;11534;51.994;5.692;2023-05-31T16:03:27;26.20;99.90
22734;DHT22;11534;51.994;5.692;2023-05-31T16:05:54;26.00;99.90
22734;DHT22;11534;51.994;5.692;2023-05-31T16:08:20;25.90;99.90
22734;DHT22;11534;51.994;5.692;2023-05-31T16:10:46;26.10;99.90
22734;DHT22;11534;51.994;5.692;2023-05-31T16:13:11;26.00;99.90
22734;DHT22;11534;51.994;5.692;2023-05-31T16:15:37;26.00;99.90
22734;DHT22;11534;51.994;5.692;2023-05-31T16:18:03;25.80;99.90
22734;DHT22;11534;51.994;5.692;2023-05-31T16:20:29;25.70;99.90
22734;DHT22;11534;51.994;5.692;2023-05-31T16:22:54;25.70;99.90
22734;DHT22;11534;51.994;5.692;2023-05-31T16:25:20;25.60;99.90
22734;DHT22;11534;51.994;5.692;2023-05-31T16:27:46;25.70;99.90
22734;DHT22;11534;51.994;5.692;2023-05-31T16:30:12;25.70;99.90
22734;DHT22;11534;51.994;5.692;2023-05-31T16:32:37;25.80;99.90
22734;DHT22;11534;51.994;5.692;2023-05-31T16:35:03;25.70;99.90
22734;DHT22;11534;51.994;5.692;2023-05-31T16:37:29;25.70;99.90
22734;DHT22;11534;51.994;5.692;2023-05-31T16:39:54;25.60;99.90
22734;DHT22;11534;51.994;5.692;2023-05-31T16:42:20;25.40;99.90